createdAt,value
2019-02-25T00:00:31.564Z,7.60
2019-02-25T00:01:31.569Z,8.20
2019-02-25T00:02:31.536Z,8.60
2019-02-25T00:03:31.543Z,8.50
2019-02-25T00:04:31.514Z,8.00
2019-02-25T00:05:31.506Z,8.00
2019-02-25T00:06:31.502Z,8.30
2019-02-25T00:07:31.488Z,8.00
2019-02-25T00:08:31.507Z,8.70
2019-02-25T00:09:31.451Z,8.50
2019-02-25T00:10:31.451Z,8.30
2019-02-25T00:11:31.451Z,9.00
2019-02-25T00:12:31.446Z,10.20
2019-02-25T00:13:31.412Z,10.30
2019-02-25T00:14:31.423Z,9.40
2019-02-25T00:15:31.385Z,9.70
2019-02-25T00:16:31.397Z,9.50
2019-02-25T00:17:31.413Z,8.10
2019-02-25T00:18:31.370Z,9.50
2019-02-25T00:19:31.352Z,9.00
2019-02-25T00:20:31.348Z,9.10
2019-02-25T00:21:31.327Z,9.10
2019-02-25T00:22:31.317Z,8.80
2019-02-25T00:23:31.323Z,8.80
2019-02-25T00:24:31.302Z,8.40
2019-02-25T00:25:31.290Z,9.10
2019-02-25T00:26:31.285Z,9.30
2019-02-25T00:27:31.265Z,10.30
2019-02-25T00:28:31.277Z,9.20
2019-02-25T00:29:31.246Z,10.40
2019-02-25T00:30:31.230Z,9.60
2019-02-25T00:31:31.221Z,9.80
2019-02-25T00:32:31.214Z,9.00
2019-02-25T00:33:31.194Z,9.00
2019-02-25T00:34:31.195Z,8.70
2019-02-25T00:35:31.176Z,8.90
2019-02-25T00:36:31.160Z,9.00
2019-02-25T00:37:31.162Z,8.90
2019-02-25T00:38:31.152Z,9.00
2019-02-25T00:39:31.169Z,8.30
2019-02-25T00:40:31.127Z,8.70
2019-02-25T00:41:31.107Z,8.30
2019-02-25T00:42:31.093Z,8.50
2019-02-25T00:43:31.094Z,9.60
2019-02-25T00:44:31.090Z,9.10
2019-02-25T00:45:31.465Z,9.70
2019-02-25T00:46:31.053Z,8.80
2019-02-25T00:47:31.057Z,9.00
2019-02-25T00:48:31.047Z,9.70
2019-02-25T00:49:31.036Z,8.20
2019-02-25T00:50:31.036Z,10.00
2019-02-25T00:51:31.004Z,8.20
2019-02-25T00:52:31.003Z,8.00
2019-02-25T00:53:30.974Z,9.30
2019-02-25T00:54:30.985Z,9.00
2019-02-25T00:55:30.971Z,9.10
2019-02-25T00:56:30.944Z,8.80
2019-02-25T00:57:30.942Z,9.50
2019-02-25T00:58:30.956Z,8.50
2019-02-25T00:59:30.913Z,8.70
2019-02-25T01:00:30.921Z,8.60
2019-02-25T01:01:30.899Z,8.80
2019-02-25T01:02:30.893Z,8.50
2019-02-25T01:03:30.871Z,8.70
2019-02-25T01:04:30.862Z,9.00
2019-02-25T01:05:30.899Z,9.30
2019-02-25T01:06:30.830Z,8.60
2019-02-25T01:07:30.817Z,8.70
2019-02-25T01:08:30.809Z,8.40
2019-02-25T01:09:30.809Z,8.60
2019-02-25T01:10:30.819Z,7.90
2019-02-25T01:11:30.781Z,8.70
2019-02-25T01:12:30.780Z,8.70
2019-02-25T01:13:30.759Z,8.30
2019-02-25T01:14:30.742Z,8.80
2019-02-25T01:15:30.759Z,8.50
2019-02-25T01:16:30.748Z,8.40
2019-02-25T01:17:30.715Z,8.80
2019-02-25T01:18:30.697Z,9.10
2019-02-25T01:19:30.693Z,9.10
2019-02-25T01:20:30.678Z,9.00
2019-02-25T01:21:30.708Z,8.50
2019-02-25T01:22:30.663Z,8.50
2019-02-25T01:23:30.653Z,8.80
2019-02-25T01:24:30.645Z,8.80
2019-02-25T01:25:30.625Z,8.40
2019-02-25T01:26:30.612Z,8.40
2019-02-25T01:27:30.620Z,9.30
2019-02-25T01:28:30.588Z,8.00
2019-02-25T01:29:30.591Z,8.30
2019-02-25T01:30:30.572Z,8.60
2019-02-25T01:31:30.593Z,9.00
2019-02-25T01:32:30.545Z,8.70
2019-02-25T01:33:30.543Z,8.20
2019-02-25T01:34:30.533Z,8.90
2019-02-25T01:35:30.527Z,8.20
2019-02-25T01:36:30.510Z,8.10
2019-02-25T01:37:30.512Z,8.20
2019-02-25T01:38:30.503Z,7.80
2019-02-25T01:39:30.471Z,8.10
2019-02-25T01:40:30.460Z,8.80
2019-02-25T01:41:30.465Z,8.10
2019-02-25T01:42:30.486Z,8.20
2019-02-25T01:43:30.435Z,7.60
2019-02-25T01:44:30.428Z,7.40
2019-02-25T01:45:30.405Z,8.40
2019-02-25T01:46:30.389Z,7.90
2019-02-25T01:47:30.391Z,7.80
2019-02-25T01:48:30.400Z,8.30
2019-02-25T01:49:30.357Z,8.10
2019-02-25T01:50:30.346Z,7.60
2019-02-25T01:51:30.343Z,7.70
2019-02-25T01:52:30.332Z,8.10
2019-02-25T01:53:30.342Z,7.80
2019-02-25T01:54:30.313Z,8.10
2019-02-25T01:55:30.301Z,7.90
2019-02-25T01:56:30.292Z,7.80
2019-02-25T01:57:30.276Z,7.90
2019-02-25T01:58:30.295Z,7.60
2019-02-25T01:59:30.247Z,7.80
2019-02-25T02:00:30.243Z,7.80
2019-02-25T02:01:30.261Z,7.90
2019-02-25T02:02:30.225Z,7.30
2019-02-25T02:03:30.201Z,7.50
2019-02-25T02:04:30.213Z,8.10
2019-02-25T02:05:30.203Z,8.30
2019-02-25T02:06:30.185Z,8.20
2019-02-25T02:07:30.169Z,7.60
2019-02-25T02:08:30.185Z,8.20
2019-02-25T02:09:30.145Z,8.30
2019-02-25T02:10:30.130Z,7.70
2019-02-25T02:11:30.123Z,8.30
2019-02-25T02:12:32.114Z,8.60
2019-02-25T02:13:30.108Z,7.50
2019-02-25T02:14:30.114Z,7.80
2019-02-25T02:15:30.088Z,7.80
2019-02-25T02:16:30.081Z,8.60
2019-02-25T02:17:30.050Z,8.10
2019-02-25T02:18:30.044Z,8.70
2019-02-25T02:19:30.065Z,7.90
2019-02-25T02:20:30.048Z,8.40
2019-02-25T02:21:30.009Z,7.90
2019-02-25T02:22:30.001Z,8.00
2019-02-25T02:23:29.992Z,7.80
2019-02-25T02:24:30.010Z,8.30
2019-02-25T02:25:29.979Z,8.10
2019-02-25T02:26:29.964Z,8.40
2019-02-25T02:27:29.971Z,8.50
2019-02-25T02:28:29.937Z,8.50
2019-02-25T02:29:29.922Z,8.10
2019-02-25T02:30:29.936Z,8.50
2019-02-25T02:31:29.902Z,8.10
2019-02-25T02:32:29.893Z,8.10
2019-02-25T02:33:29.893Z,7.80
2019-02-25T02:34:29.875Z,6.80
2019-02-25T02:35:29.899Z,8.00
2019-02-25T02:36:29.850Z,7.10
2019-02-25T02:37:29.850Z,7.90
2019-02-25T02:38:29.831Z,8.10
2019-02-25T02:39:29.828Z,7.40
2019-02-25T02:40:29.847Z,7.70
2019-02-25T02:41:29.791Z,7.50
2019-02-25T02:42:29.787Z,7.80
2019-02-25T02:43:29.777Z,7.10
2019-02-25T02:44:29.768Z,7.90
2019-02-25T02:45:29.741Z,7.30
2019-02-25T02:46:29.766Z,7.60
2019-02-25T02:47:29.723Z,7.30
2019-02-25T02:48:29.711Z,7.70
2019-02-25T02:49:29.707Z,7.50
2019-02-25T02:50:29.721Z,7.80
2019-02-25T02:51:29.677Z,8.50
2019-02-25T02:52:29.700Z,7.80
2019-02-25T02:53:29.663Z,8.20
2019-02-25T02:54:29.660Z,7.90
2019-02-25T02:55:29.653Z,8.30
2019-02-25T02:56:29.652Z,7.60
2019-02-25T02:57:29.619Z,7.70
2019-02-25T02:58:29.625Z,7.70
2019-02-25T02:59:29.592Z,8.20
2019-02-25T03:00:29.591Z,7.90
2019-02-25T03:01:29.580Z,7.70
2019-02-25T03:02:29.566Z,8.20
2019-02-25T03:03:29.582Z,7.90
2019-02-25T03:04:29.566Z,8.20
2019-02-25T03:05:29.526Z,7.60
2019-02-25T03:06:29.534Z,7.50
2019-02-25T03:07:29.513Z,8.00
2019-02-25T03:08:29.524Z,8.00
2019-02-25T03:09:29.490Z,7.80
2019-02-25T03:10:29.474Z,7.50
2019-02-25T03:11:29.465Z,7.50
2019-02-25T03:12:29.459Z,7.10
2019-02-25T03:13:29.483Z,7.90
2019-02-25T03:14:29.446Z,7.50
2019-02-25T03:15:29.443Z,7.80
2019-02-25T03:16:29.427Z,7.00
2019-02-25T03:17:29.394Z,7.70
2019-02-25T03:18:29.418Z,7.40
2019-02-25T03:19:29.394Z,7.10
2019-02-25T03:20:29.388Z,7.40
2019-02-25T03:21:29.364Z,7.60
2019-02-25T03:22:29.350Z,7.90
2019-02-25T03:23:29.335Z,7.80
2019-02-25T03:24:29.340Z,7.60
2019-02-25T03:25:29.327Z,7.30
2019-02-25T03:26:29.318Z,7.60
2019-02-25T03:27:29.319Z,7.20
2019-02-25T03:28:29.283Z,7.90
2019-02-25T03:29:29.280Z,7.50
2019-02-25T03:30:29.261Z,7.20
2019-02-25T03:31:29.243Z,7.80
2019-02-25T03:32:29.274Z,7.60
2019-02-25T03:33:29.229Z,7.80
2019-02-25T03:34:29.246Z,7.90
2019-02-25T03:35:29.216Z,7.20
2019-02-25T03:36:29.200Z,7.10
2019-02-25T03:37:29.180Z,7.60
2019-02-25T03:38:29.170Z,7.10
2019-02-25T03:39:29.194Z,7.40
2019-02-25T03:40:29.161Z,7.50
2019-02-25T03:41:29.134Z,6.80
2019-02-25T03:42:29.130Z,8.00
2019-02-25T03:43:29.116Z,7.10
2019-02-25T03:44:29.135Z,7.60
2019-02-25T03:45:29.106Z,7.30
2019-02-25T03:46:29.097Z,7.40
2019-02-25T03:47:29.078Z,6.80
2019-02-25T03:48:29.073Z,7.20
2019-02-25T03:49:29.055Z,7.30
2019-02-25T03:50:29.066Z,6.90
2019-02-25T03:51:29.022Z,7.30
2019-02-25T03:52:29.015Z,8.20
2019-02-25T03:53:29.015Z,7.20
2019-02-25T03:54:29.034Z,7.10
2019-02-25T03:55:28.986Z,7.40
2019-02-25T03:56:29.000Z,7.10
2019-02-25T03:57:28.966Z,7.60
2019-02-25T03:58:28.959Z,7.70
2019-02-25T03:59:28.958Z,8.10
2019-02-25T04:00:28.968Z,7.20
2019-02-25T04:01:28.918Z,7.60
2019-02-25T04:02:28.903Z,7.30
2019-02-25T04:03:28.895Z,7.90
2019-02-25T04:04:28.887Z,7.90
2019-02-25T04:05:28.884Z,7.50
2019-02-25T04:06:28.886Z,7.40
2019-02-25T04:07:28.862Z,7.50
2019-02-25T04:08:28.851Z,6.90
2019-02-25T04:09:28.825Z,7.10
2019-02-25T04:10:28.821Z,7.40
2019-02-25T04:11:28.852Z,6.60
2019-02-25T04:12:28.810Z,6.80
2019-02-25T04:13:28.794Z,7.60
2019-02-25T04:14:28.778Z,7.40
2019-02-25T04:15:28.764Z,7.10
2019-02-25T04:16:28.775Z,7.50
2019-02-25T04:17:28.753Z,6.50
2019-02-25T04:18:28.745Z,6.90
2019-02-25T04:19:28.736Z,7.30
2019-02-25T04:20:28.723Z,7.00
2019-02-25T04:21:28.727Z,7.60
2019-02-25T04:22:28.686Z,6.80
2019-02-25T04:23:28.691Z,7.10
2019-02-25T04:24:28.666Z,8.00
2019-02-25T04:25:28.663Z,7.60
2019-02-25T04:26:28.647Z,7.70
2019-02-25T04:27:28.662Z,7.50
2019-02-25T04:28:28.623Z,7.20
2019-02-25T04:29:28.618Z,6.70
2019-02-25T04:30:28.673Z,7.50
2019-02-25T04:31:28.624Z,7.50
2019-02-25T04:32:28.589Z,7.40
2019-02-25T04:33:28.564Z,7.70
2019-02-25T04:34:28.623Z,7.60
2019-02-25T04:35:28.547Z,7.60
2019-02-25T04:36:28.559Z,6.90
2019-02-25T04:37:28.530Z,7.20
2019-02-25T04:38:28.517Z,7.10
2019-02-25T04:39:28.500Z,6.90
2019-02-25T04:40:28.489Z,7.80
2019-02-25T04:41:28.615Z,6.90
2019-02-25T04:42:28.467Z,7.30
2019-02-25T04:43:28.461Z,7.40
2019-02-25T04:44:28.449Z,7.20
2019-02-25T04:45:28.442Z,7.60
2019-02-25T04:46:28.450Z,6.50
2019-02-25T04:47:28.417Z,7.40
2019-02-25T04:48:28.402Z,7.00
2019-02-25T04:49:28.396Z,7.20
2019-02-25T04:50:28.386Z,7.40
2019-02-25T04:51:28.376Z,7.00
2019-02-25T04:52:28.382Z,7.50
2019-02-25T04:53:28.344Z,7.60
2019-02-25T04:54:28.337Z,7.00
2019-02-25T04:55:28.350Z,7.20
2019-02-25T04:56:28.344Z,8.00
2019-02-25T04:57:28.315Z,7.30
2019-02-25T04:58:28.303Z,7.20
2019-02-25T04:59:28.282Z,7.20
2019-02-25T05:00:28.275Z,7.20
2019-02-25T05:01:28.262Z,7.80
2019-02-25T05:02:28.278Z,7.10
2019-02-25T05:03:28.241Z,7.30
2019-02-25T05:04:28.238Z,7.60
2019-02-25T05:05:28.217Z,7.20
2019-02-25T05:06:28.207Z,7.20
2019-02-25T05:07:28.229Z,8.00
2019-02-25T05:08:28.194Z,7.20
2019-02-25T05:09:28.178Z,7.80
2019-02-25T05:10:28.170Z,7.60
2019-02-25T05:11:28.171Z,7.70
2019-02-25T05:12:28.155Z,7.00
2019-02-25T05:13:28.157Z,7.70
2019-02-25T05:14:28.139Z,7.80
2019-02-25T05:15:28.124Z,7.20
2019-02-25T05:16:28.112Z,7.50
2019-02-25T05:17:28.088Z,7.70
2019-02-25T05:18:28.077Z,8.40
2019-02-25T05:19:28.093Z,7.50
2019-02-25T05:20:28.060Z,7.00
2019-02-25T05:21:28.054Z,8.30
2019-02-25T05:22:28.045Z,6.90
2019-02-25T05:23:28.043Z,7.50
2019-02-25T05:24:28.051Z,7.60
2019-02-25T05:25:28.002Z,7.90
2019-02-25T05:26:27.992Z,8.00
2019-02-25T05:27:27.992Z,7.20
2019-02-25T05:28:27.970Z,8.30
2019-02-25T05:29:27.967Z,7.20
2019-02-25T05:30:27.987Z,7.90
2019-02-25T05:31:27.942Z,7.80
2019-02-25T05:32:27.928Z,7.90
2019-02-25T05:33:27.932Z,8.10
2019-02-25T05:34:27.914Z,8.70
2019-02-25T05:35:27.995Z,7.80
2019-02-25T05:36:27.890Z,7.80
2019-02-25T05:37:27.880Z,9.10
2019-02-25T05:38:27.871Z,8.50
2019-02-25T05:39:27.851Z,8.80
2019-02-25T05:40:27.844Z,7.90
2019-02-25T05:41:28.095Z,7.80
2019-02-25T05:42:27.843Z,8.30
2019-02-25T05:43:27.821Z,8.00
2019-02-25T05:44:27.816Z,8.60
2019-02-25T05:45:27.791Z,8.60
2019-02-25T05:46:27.795Z,9.10
2019-02-25T05:47:27.776Z,8.10
2019-02-25T05:48:27.775Z,8.90
2019-02-25T05:49:27.739Z,8.10
2019-02-25T05:50:27.760Z,8.20
2019-02-25T05:51:27.729Z,7.70
2019-02-25T05:52:27.717Z,8.70
2019-02-25T05:53:27.707Z,8.20
2019-02-25T05:54:27.708Z,8.10
2019-02-25T05:55:27.702Z,8.80
2019-02-25T05:56:27.759Z,9.00
2019-02-25T05:57:27.659Z,8.00
2019-02-25T05:58:27.644Z,8.10
2019-02-25T05:59:27.639Z,8.70
2019-02-25T06:00:27.624Z,8.90
2019-02-25T06:01:27.668Z,8.70
2019-02-25T06:02:27.612Z,7.80
2019-02-25T06:03:27.595Z,8.60
2019-02-25T06:04:27.580Z,8.50
2019-02-25T06:05:27.600Z,8.20
2019-02-25T06:06:27.572Z,8.10
2019-02-25T06:07:27.580Z,7.70
2019-02-25T06:08:27.582Z,8.10
2019-02-25T06:09:27.537Z,8.30
2019-02-25T06:10:27.517Z,7.90
2019-02-25T06:11:27.519Z,8.70
2019-02-25T06:12:27.502Z,8.60
2019-02-25T06:13:27.514Z,7.70
2019-02-25T06:14:27.507Z,8.20
2019-02-25T06:15:27.475Z,9.00
2019-02-25T06:16:27.458Z,8.70
2019-02-25T06:17:27.443Z,9.00
2019-02-25T06:18:27.452Z,8.90
2019-02-25T06:19:27.433Z,8.30
2019-02-25T06:20:27.418Z,8.70
2019-02-25T06:21:27.407Z,8.50
2019-02-25T06:22:27.383Z,8.30
2019-02-25T06:23:27.431Z,8.10
2019-02-25T06:24:27.370Z,8.70
2019-02-25T06:25:27.367Z,9.40
2019-02-25T06:26:27.370Z,8.10
2019-02-25T06:27:30.669Z,8.80
2019-02-25T06:28:27.330Z,8.10
2019-02-25T06:29:27.329Z,8.90
2019-02-25T06:30:27.301Z,8.50
2019-02-25T06:31:27.297Z,8.50
2019-02-25T06:32:27.304Z,8.00
2019-02-25T06:33:27.274Z,8.90
2019-02-25T06:34:27.292Z,9.10
2019-02-25T06:35:27.295Z,9.00
2019-02-25T06:36:27.269Z,8.60
2019-02-25T06:37:27.234Z,8.80
2019-02-25T06:38:27.233Z,8.80
2019-02-25T06:39:27.220Z,9.00
2019-02-25T06:40:27.245Z,8.10
2019-02-25T06:41:27.199Z,8.30
2019-02-25T06:42:27.181Z,8.40
2019-02-25T06:43:27.156Z,8.50
2019-02-25T06:44:27.152Z,9.00
2019-02-25T06:45:27.172Z,8.30
2019-02-25T06:46:27.135Z,8.90
2019-02-25T06:47:27.119Z,8.80
2019-02-25T06:48:27.122Z,9.10
2019-02-25T06:49:27.092Z,8.60
2019-02-25T06:50:27.105Z,9.30
2019-02-25T06:51:27.077Z,8.90
2019-02-25T06:52:27.071Z,8.80
2019-02-25T06:53:27.050Z,9.40
2019-02-25T06:54:27.037Z,8.50
2019-02-25T06:55:27.044Z,9.20
2019-02-25T06:56:27.038Z,8.80
2019-02-25T06:57:27.012Z,9.80
2019-02-25T06:58:27.005Z,9.00
2019-02-25T06:59:27.002Z,9.30
2019-02-25T07:00:26.983Z,9.30
2019-02-25T07:01:26.978Z,10.10
2019-02-25T07:02:26.962Z,9.50
2019-02-25T07:03:26.942Z,9.70
2019-02-25T07:04:26.968Z,9.80
2019-02-25T07:05:26.923Z,10.50
2019-02-25T07:06:26.953Z,9.50
2019-02-25T07:07:26.902Z,10.50
2019-02-25T07:08:26.881Z,10.10
2019-02-25T07:09:26.902Z,10.00
2019-02-25T07:10:26.870Z,10.10
2019-02-25T07:11:26.861Z,9.20
2019-02-25T07:12:26.879Z,9.00
2019-02-25T07:13:26.833Z,10.10
2019-02-25T07:14:26.823Z,10.20
2019-02-25T07:15:26.835Z,10.30
2019-02-25T07:16:26.799Z,10.00
2019-02-25T07:17:27.897Z,9.80
2019-02-25T07:18:26.820Z,10.00
2019-02-25T07:19:26.772Z,10.40
2019-02-25T07:20:26.761Z,10.30
2019-02-25T07:21:26.738Z,10.40
2019-02-25T07:22:26.737Z,11.10
2019-02-25T07:23:26.748Z,10.30
2019-02-25T07:24:26.723Z,10.90
2019-02-25T07:25:26.695Z,10.70
2019-02-25T07:26:27.604Z,10.80
2019-02-25T07:27:26.687Z,10.60
2019-02-25T07:28:26.698Z,11.70
2019-02-25T07:29:26.661Z,11.40
2019-02-25T07:30:26.650Z,12.10
2019-02-25T07:31:26.645Z,11.40
2019-02-25T07:32:26.631Z,12.10
2019-02-25T07:33:26.606Z,11.80
2019-02-25T07:34:26.619Z,12.40
2019-02-25T07:35:26.591Z,12.20
2019-02-25T07:36:26.578Z,12.40
2019-02-25T07:37:26.575Z,12.90
2019-02-25T07:38:26.563Z,12.40
2019-02-25T07:39:26.565Z,12.60
2019-02-25T07:40:26.540Z,12.70
2019-02-25T07:41:26.550Z,12.60
2019-02-25T07:42:26.526Z,11.90
2019-02-25T07:43:26.509Z,12.20
2019-02-25T07:44:26.525Z,12.30
2019-02-25T07:45:26.481Z,12.10
2019-02-25T07:46:26.463Z,12.30
2019-02-25T07:47:26.454Z,12.40
2019-02-25T07:48:26.448Z,12.90
2019-02-25T07:49:26.441Z,12.40
2019-02-25T07:50:26.498Z,12.80
2019-02-25T07:51:26.447Z,12.70
2019-02-25T07:52:26.406Z,12.80
2019-02-25T07:53:26.388Z,12.00
2019-02-25T07:54:26.380Z,12.50
2019-02-25T07:55:26.631Z,13.30
2019-02-25T07:56:26.638Z,13.20
2019-02-25T07:57:26.352Z,12.30
2019-02-25T07:58:26.340Z,12.30
2019-02-25T07:59:26.326Z,12.50
2019-02-25T08:00:26.690Z,11.30
2019-02-25T08:01:26.314Z,12.90
2019-02-25T08:02:26.303Z,12.00
2019-02-25T08:03:26.292Z,12.30
2019-02-25T08:04:26.285Z,13.20
2019-02-25T08:05:26.770Z,12.70
2019-02-25T08:06:26.247Z,12.70
2019-02-25T08:07:26.243Z,12.30
2019-02-25T08:08:26.230Z,12.50
2019-02-25T08:09:26.234Z,11.90
2019-02-25T08:10:26.233Z,12.40
2019-02-25T08:11:26.210Z,12.10
2019-02-25T08:12:26.175Z,12.50
2019-02-25T08:13:26.176Z,11.90
2019-02-25T08:14:26.170Z,12.70
2019-02-25T08:15:26.170Z,13.50
2019-02-25T08:16:26.143Z,12.70
2019-02-25T08:17:26.124Z,12.50
2019-02-25T08:18:26.118Z,12.30
2019-02-25T08:19:26.104Z,12.60
2019-02-25T08:20:26.127Z,12.20
2019-02-25T08:21:26.092Z,12.00
2019-02-25T08:22:26.096Z,13.00
2019-02-25T08:23:26.074Z,12.70
2019-02-25T08:24:30.601Z,12.60
2019-02-25T08:25:26.038Z,14.10
2019-02-25T08:26:26.047Z,15.00
2019-02-25T08:27:26.028Z,13.40
2019-02-25T08:28:26.018Z,13.80
2019-02-25T08:29:25.996Z,13.50
2019-02-25T08:30:25.987Z,14.40
2019-02-25T08:31:25.983Z,14.00
2019-02-25T08:32:25.980Z,13.80
2019-02-25T08:33:25.987Z,14.30
2019-02-25T08:34:25.939Z,13.90
2019-02-25T08:35:25.937Z,13.70
2019-02-25T08:36:25.918Z,16.00
2019-02-25T08:37:25.905Z,14.40
2019-02-25T08:38:25.913Z,13.60
2019-02-25T08:39:25.880Z,13.90
2019-02-25T08:40:25.865Z,14.30
2019-02-25T08:41:25.864Z,13.30
2019-02-25T08:42:25.882Z,13.80
2019-02-25T08:43:25.872Z,13.90
2019-02-25T08:44:25.823Z,12.90
2019-02-25T08:45:25.833Z,13.90
2019-02-25T08:46:25.814Z,13.50
2019-02-25T08:47:25.806Z,15.50
2019-02-25T08:48:25.811Z,14.70
2019-02-25T08:49:25.768Z,14.40
2019-02-25T08:50:25.764Z,14.00
2019-02-25T08:51:25.747Z,13.70
2019-02-25T08:52:25.739Z,13.70
2019-02-25T08:53:25.756Z,13.80
2019-02-25T08:54:25.763Z,13.80
2019-02-25T08:55:25.721Z,14.30
2019-02-25T08:56:25.701Z,14.80
2019-02-25T08:57:25.682Z,15.20
2019-02-25T08:58:25.681Z,14.80
2019-02-25T08:59:25.704Z,15.30
2019-02-25T09:00:25.660Z,15.40
2019-02-25T09:01:25.639Z,15.40
2019-02-25T09:02:25.627Z,15.30
2019-02-25T09:03:25.644Z,15.30
2019-02-25T09:04:25.607Z,15.40
2019-02-25T09:05:25.630Z,15.80
2019-02-25T09:06:25.595Z,16.50
2019-02-25T09:07:25.582Z,14.90
2019-02-25T09:08:25.575Z,15.70
2019-02-25T09:09:25.551Z,15.30
2019-02-25T09:10:25.572Z,16.10
2019-02-25T09:11:25.533Z,15.80
2019-02-25T09:12:25.521Z,14.80
2019-02-25T09:13:25.515Z,16.40
2019-02-25T09:14:25.516Z,16.60
2019-02-25T09:15:27.506Z,16.20
2019-02-25T09:16:25.495Z,15.80
2019-02-25T09:17:25.474Z,16.80
2019-02-25T09:18:25.466Z,16.60
2019-02-25T09:19:25.457Z,16.60
2019-02-25T09:20:25.444Z,16.60
2019-02-25T09:21:31.563Z,16.90
2019-02-25T09:22:26.403Z,16.50
2019-02-25T09:23:25.419Z,17.00
2019-02-25T09:24:25.399Z,17.20
2019-02-25T09:25:25.380Z,16.30
2019-02-25T09:26:25.399Z,17.30
2019-02-25T09:27:25.359Z,17.20
2019-02-25T09:28:25.354Z,17.00
2019-02-25T09:29:25.350Z,17.10
2019-02-25T09:30:25.327Z,17.30
2019-02-25T09:31:25.322Z,17.30
2019-02-25T09:32:25.330Z,17.80
2019-02-25T09:33:25.303Z,17.30
2019-02-25T09:34:25.278Z,18.40
2019-02-25T09:35:25.282Z,17.50
2019-02-25T09:36:25.742Z,18.40
2019-02-25T09:37:25.269Z,17.40
2019-02-25T09:38:25.243Z,17.40
2019-02-25T09:39:25.295Z,17.90
2019-02-25T09:40:25.254Z,18.10
2019-02-25T09:41:29.844Z,18.90
2019-02-25T09:42:26.235Z,16.80
2019-02-25T09:43:25.180Z,17.20
2019-02-25T09:44:25.171Z,18.00
2019-02-25T09:45:25.172Z,17.90
2019-02-25T09:46:25.175Z,17.90
2019-02-25T09:47:25.143Z,18.00
2019-02-25T09:48:25.152Z,18.40
2019-02-25T09:49:25.253Z,17.10
2019-02-25T09:50:25.118Z,18.10
2019-02-25T09:51:26.028Z,17.30
2019-02-25T09:52:25.949Z,19.40
2019-02-25T09:53:25.102Z,17.90
2019-02-25T09:54:25.070Z,17.50
2019-02-25T09:55:25.065Z,18.10
2019-02-25T09:56:25.045Z,17.60
2019-02-25T09:57:25.036Z,17.90
2019-02-25T09:58:25.048Z,18.70
2019-02-25T09:59:25.029Z,18.70
2019-02-25T10:00:25.009Z,18.60
2019-02-25T10:01:24.987Z,19.30
2019-02-25T10:02:24.995Z,20.60
2019-02-25T10:03:25.005Z,20.00
2019-02-25T10:04:24.980Z,19.10
2019-02-25T10:05:24.944Z,19.70
2019-02-25T10:06:24.937Z,19.70
2019-02-25T10:07:24.923Z,19.90
2019-02-25T10:08:24.918Z,19.80
2019-02-25T10:09:29.854Z,20.30
2019-02-25T10:10:25.907Z,19.90
2019-02-25T10:11:24.896Z,18.70
2019-02-25T10:12:24.888Z,19.10
2019-02-25T10:13:24.860Z,19.90
2019-02-25T10:14:24.876Z,20.20
2019-02-25T10:15:24.862Z,19.20
2019-02-25T10:16:24.836Z,19.20
2019-02-25T10:17:24.827Z,20.60
2019-02-25T10:18:24.815Z,19.60
2019-02-25T10:19:24.817Z,19.00
2019-02-25T10:20:24.787Z,18.20
2019-02-25T10:21:24.805Z,19.30
2019-02-25T10:22:24.781Z,19.90
2019-02-25T10:23:24.767Z,19.30
2019-02-25T10:24:24.762Z,19.30
2019-02-25T10:25:24.771Z,18.80
2019-02-25T10:26:24.736Z,19.90
2019-02-25T10:27:24.717Z,20.80
2019-02-25T10:28:24.705Z,21.10
2019-02-25T10:29:24.712Z,21.10
2019-02-25T10:30:24.695Z,20.40
2019-02-25T10:31:24.701Z,19.60
2019-02-25T10:32:25.950Z,20.10
2019-02-25T10:33:24.656Z,18.80
2019-02-25T10:34:24.642Z,20.50
2019-02-25T10:35:24.967Z,20.20
2019-02-25T10:36:24.656Z,21.00
2019-02-25T10:37:24.641Z,20.70
2019-02-25T10:38:24.600Z,19.90
2019-02-25T10:39:24.625Z,19.60
2019-02-25T10:40:26.919Z,19.90
2019-02-25T10:41:26.136Z,19.90
2019-02-25T10:42:24.569Z,19.80
2019-02-25T10:43:26.118Z,19.70
2019-02-25T10:44:24.549Z,19.40
2019-02-25T10:45:24.533Z,20.40
2019-02-25T10:46:24.556Z,20.10
2019-02-25T10:47:24.511Z,20.10
2019-02-25T10:48:25.842Z,19.80
2019-02-25T10:49:26.297Z,18.90
2019-02-25T10:50:24.487Z,18.90
2019-02-25T10:51:24.465Z,18.80
2019-02-25T10:52:24.474Z,19.10
2019-02-25T10:53:24.458Z,18.80
2019-02-25T10:54:25.482Z,19.50
2019-02-25T10:55:24.433Z,18.40
2019-02-25T10:56:25.932Z,19.80
2019-02-25T10:57:26.594Z,18.80
2019-02-25T10:58:25.192Z,19.80
2019-02-25T10:59:24.404Z,18.30
2019-02-25T11:00:24.375Z,18.40
2019-02-25T11:01:24.712Z,18.20
2019-02-25T11:02:24.358Z,18.90
2019-02-25T11:03:24.354Z,18.20
2019-02-25T11:04:26.096Z,18.00
2019-02-25T11:05:25.942Z,18.10
2019-02-25T11:06:25.215Z,18.20
2019-02-25T11:07:24.318Z,18.00
2019-02-25T11:08:24.299Z,17.50
2019-02-25T11:09:24.305Z,18.00
2019-02-25T11:10:24.264Z,17.60
2019-02-25T11:11:25.432Z,17.90
2019-02-25T11:12:25.767Z,17.10
2019-02-25T11:13:25.554Z,17.20
2019-02-25T11:14:24.262Z,17.50
2019-02-25T11:15:24.223Z,17.40
2019-02-25T11:16:24.209Z,17.70
2019-02-25T11:17:24.435Z,17.70
2019-02-25T11:18:26.176Z,17.60
2019-02-25T11:19:24.925Z,18.20
2019-02-25T11:20:24.158Z,18.80
2019-02-25T11:21:24.169Z,18.10
2019-02-25T11:22:24.147Z,17.90
2019-02-25T11:23:24.126Z,17.70
2019-02-25T11:24:25.470Z,18.70
2019-02-25T11:25:25.809Z,18.30
2019-02-25T11:26:26.090Z,18.50
2019-02-25T11:27:24.096Z,17.90
2019-02-25T11:28:26.013Z,18.60
2019-02-25T11:29:24.074Z,17.90
2019-02-25T11:30:24.121Z,17.70
2019-02-25T11:31:26.321Z,17.20
2019-02-25T11:32:25.917Z,17.20
2019-02-25T11:33:25.175Z,16.50
2019-02-25T11:34:24.028Z,17.20
2019-02-25T11:35:24.052Z,17.40
2019-02-25T11:36:24.010Z,16.90
2019-02-25T11:37:24.728Z,17.60
2019-02-25T11:38:25.918Z,16.80
2019-02-25T11:39:25.280Z,16.50
2019-02-25T11:40:25.907Z,16.90
2019-02-25T11:41:23.961Z,17.30
2019-02-25T11:42:23.938Z,18.10
2019-02-25T11:43:23.930Z,16.50
2019-02-25T11:44:25.931Z,17.20
2019-02-25T11:45:23.939Z,17.10
2019-02-25T11:46:23.931Z,17.10
2019-02-25T11:47:23.895Z,17.30
2019-02-25T11:48:23.897Z,16.80
2019-02-25T11:49:23.897Z,17.30
2019-02-25T11:50:23.851Z,17.80
2019-02-25T11:51:23.860Z,17.50
2019-02-25T11:52:23.834Z,17.70
2019-02-25T11:53:23.835Z,16.40
2019-02-25T11:54:23.814Z,17.90
2019-02-25T11:55:23.797Z,16.70
2019-02-25T11:56:23.813Z,17.60
2019-02-25T11:57:23.796Z,17.60
2019-02-25T11:58:23.799Z,16.60
2019-02-25T11:59:23.763Z,16.90
2019-02-25T12:00:23.758Z,17.90
2019-02-25T12:01:23.769Z,18.40
2019-02-25T12:02:25.866Z,17.30
2019-02-25T12:03:23.712Z,17.50
2019-02-25T12:04:23.706Z,17.30
2019-02-25T12:05:23.710Z,17.50
2019-02-25T12:06:23.692Z,16.80
2019-02-25T12:07:23.703Z,17.20
2019-02-25T12:08:23.695Z,17.90
2019-02-25T12:09:23.648Z,19.10
2019-02-25T12:10:23.634Z,20.20
2019-02-25T12:11:23.643Z,18.60
2019-02-25T12:12:23.664Z,17.70
2019-02-25T12:13:23.605Z,17.40
2019-02-25T12:14:23.594Z,17.80
2019-02-25T12:15:23.589Z,17.20
2019-02-25T12:16:23.573Z,18.20
2019-02-25T12:17:23.581Z,17.90
2019-02-25T12:18:23.589Z,17.00
2019-02-25T12:19:23.556Z,17.50
2019-02-25T12:20:23.537Z,17.10
2019-02-25T12:21:23.529Z,17.30
2019-02-25T12:22:23.510Z,17.70
2019-02-25T12:23:23.529Z,18.30
2019-02-25T12:24:23.486Z,17.30
2019-02-25T12:25:23.486Z,17.20
2019-02-25T12:26:23.475Z,16.10
2019-02-25T12:27:23.460Z,16.20
2019-02-25T12:28:23.479Z,16.60
2019-02-25T12:29:23.441Z,17.40
2019-02-25T12:30:23.429Z,17.70
2019-02-25T12:31:23.425Z,16.20
2019-02-25T12:32:23.405Z,17.20
2019-02-25T12:33:23.414Z,16.80
2019-02-25T12:34:23.377Z,16.60
2019-02-25T12:35:23.364Z,16.50
2019-02-25T12:36:23.358Z,16.90
2019-02-25T12:37:23.351Z,16.60
2019-02-25T12:38:23.361Z,17.10
2019-02-25T12:39:23.332Z,16.50
2019-02-25T12:40:23.319Z,15.70
2019-02-25T12:41:23.296Z,16.20
2019-02-25T12:42:23.293Z,16.30
2019-02-25T12:43:23.313Z,15.70
2019-02-25T12:44:23.273Z,15.70
2019-02-25T12:45:23.259Z,16.40
2019-02-25T12:46:23.247Z,16.40
2019-02-25T12:47:23.237Z,15.70
2019-02-25T12:48:23.249Z,15.70
2019-02-25T12:49:23.223Z,15.20
2019-02-25T12:50:23.215Z,15.10
2019-02-25T12:51:23.198Z,15.50
2019-02-25T12:52:23.183Z,16.10
2019-02-25T12:53:23.202Z,16.10
2019-02-25T12:54:23.163Z,15.60
2019-02-25T12:55:23.149Z,14.90
2019-02-25T12:56:23.145Z,15.40
2019-02-25T12:57:23.134Z,16.00
2019-02-25T12:58:23.125Z,14.90
2019-02-25T12:59:23.123Z,14.60
2019-02-25T13:00:23.122Z,14.60
2019-02-25T13:01:23.097Z,15.30
2019-02-25T13:02:23.086Z,14.70
2019-02-25T13:03:23.061Z,14.80
2019-02-25T13:04:23.063Z,14.10
2019-02-25T13:05:23.059Z,15.00
2019-02-25T13:06:23.030Z,14.50